createdAt,value
2022-10-18T00:00:20.263Z,6.38
2022-10-18T00:02:47.319Z,9.38
2022-10-18T00:05:14.316Z,9.43
2022-10-18T00:07:41.272Z,9.77
2022-10-18T00:10:09.090Z,8.90
2022-10-18T00:12:37.284Z,18.42
2022-10-18T00:15:07.185Z,12.10
2022-10-18T00:17:35.856Z,8.23
2022-10-18T00:20:02.840Z,8.18
2022-10-18T00:22:30.117Z,7.20
2022-10-18T00:24:57.354Z,6.95
2022-10-18T00:27:24.343Z,8.65
2022-10-18T00:29:54.259Z,6.82
2022-10-18T00:32:21.352Z,10.23
2022-10-18T00:34:48.893Z,9.57
2022-10-18T00:37:16.234Z,6.55
2022-10-18T00:39:43.506Z,10.02
2022-10-18T00:42:21.814Z,12.63
2022-10-18T00:45:22.396Z,7.80
2022-10-18T00:47:55.562Z,10.48
2022-10-18T00:50:23.651Z,7.03
2022-10-18T00:52:55.761Z,10.57
2022-10-18T00:55:23.062Z,5.93
2022-10-18T00:57:50.513Z,7.65
2022-10-18T01:00:18.556Z,10.43
2022-10-18T01:02:46.911Z,8.93
2022-10-18T01:05:16.869Z,7.85
2022-10-18T01:08:28.660Z,6.53
2022-10-18T01:14:21.186Z,7.78
2022-10-18T01:17:15.458Z,6.75
2022-10-18T01:20:19.101Z,7.30
2022-10-18T01:22:55.225Z,8.65
2022-10-18T01:25:40.492Z,6.28
2022-10-18T01:28:49.382Z,9.55
2022-10-18T01:31:33.107Z,7.85
2022-10-18T01:34:04.224Z,6.80
2022-10-18T01:36:34.255Z,9.00
2022-10-18T01:39:06.962Z,5.57
2022-10-18T01:41:37.859Z,9.32
2022-10-18T01:44:08.541Z,7.40
2022-10-18T01:46:37.546Z,11.63
2022-10-18T01:49:05.238Z,7.93
2022-10-18T01:51:33.197Z,10.65
2022-10-18T01:54:00.576Z,7.43
2022-10-18T01:57:11.362Z,5.05
2022-10-18T02:00:26.353Z,12.38
2022-10-18T02:03:23.735Z,11.65
2022-10-18T02:06:02.236Z,9.63
2022-10-18T02:08:35.275Z,9.80
2022-10-18T02:11:10.850Z,8.30
2022-10-18T02:13:42.348Z,8.88
2022-10-18T02:16:17.208Z,9.63
2022-10-18T02:18:52.200Z,7.88
2022-10-18T02:21:21.501Z,7.07
2022-10-18T02:23:49.165Z,9.80
2022-10-18T02:26:17.090Z,9.80
2022-10-18T02:28:44.846Z,9.82
2022-10-18T02:31:38.232Z,8.52
2022-10-18T02:34:19.984Z,12.35
2022-10-18T02:36:52.228Z,17.95
2022-10-18T02:39:34.457Z,9.95
2022-10-18T02:42:06.810Z,14.32
2022-10-18T02:44:37.811Z,15.38
2022-10-18T02:47:06.352Z,13.73
2022-10-18T02:49:33.315Z,10.85
2022-10-18T02:52:00.348Z,14.98
2022-10-18T02:54:27.356Z,9.45
2022-10-18T02:56:54.366Z,10.23
2022-10-18T02:59:21.241Z,10.45
2022-10-18T03:01:48.187Z,10.63
2022-10-18T03:04:15.494Z,8.88
2022-10-18T03:06:42.473Z,9.80
2022-10-18T03:09:10.178Z,11.52
2022-10-18T03:11:37.059Z,33.65
2022-10-18T03:14:04.036Z,10.23
2022-10-18T03:16:31.610Z,10.35
2022-10-18T03:18:58.581Z,12.07
2022-10-18T03:21:25.575Z,11.48
2022-10-18T03:23:52.492Z,9.20
2022-10-18T03:26:19.413Z,15.65
2022-10-18T03:28:46.344Z,10.77
2022-10-18T03:31:13.374Z,11.77
2022-10-18T03:33:40.315Z,9.45
2022-10-18T03:36:07.324Z,8.73
2022-10-18T03:38:34.216Z,8.40
2022-10-18T03:41:01.145Z,8.13
2022-10-18T03:43:28.062Z,9.30
2022-10-18T03:45:54.999Z,10.38
2022-10-18T03:48:21.982Z,10.07
2022-10-18T03:50:48.893Z,16.33
2022-10-18T03:53:15.843Z,15.73
2022-10-18T03:55:42.787Z,10.25
2022-10-18T03:58:09.809Z,10.45
2022-10-18T04:00:36.750Z,13.50
2022-10-18T04:03:03.989Z,20.50
2022-10-18T04:05:31.574Z,16.85
2022-10-18T04:07:58.695Z,11.32
2022-10-18T04:10:26.179Z,13.52
2022-10-18T04:12:53.232Z,26.02
2022-10-18T04:15:20.211Z,13.13
2022-10-18T04:17:47.211Z,14.85
2022-10-18T04:20:14.341Z,12.55
2022-10-18T04:22:41.347Z,24.27
2022-10-18T04:25:08.461Z,17.88
2022-10-18T04:27:36.051Z,26.60
2022-10-18T04:30:03.101Z,31.30
2022-10-18T04:32:30.053Z,13.15
2022-10-18T04:34:56.995Z,16.67
2022-10-18T04:37:23.929Z,16.40
2022-10-18T04:39:53.530Z,21.05
2022-10-18T04:42:21.514Z,16.88
2022-10-18T04:44:48.790Z,16.77
2022-10-18T04:47:16.301Z,20.00
2022-10-18T04:49:43.308Z,14.10
2022-10-18T04:52:10.512Z,21.23
2022-10-18T04:54:37.612Z,17.35
2022-10-18T04:57:04.839Z,14.18
2022-10-18T04:59:31.948Z,29.42
2022-10-18T05:01:58.927Z,37.70
2022-10-18T05:04:25.957Z,16.15
2022-10-18T05:06:52.955Z,14.82
2022-10-18T05:09:22.409Z,24.45
2022-10-18T05:11:49.392Z,27.73
2022-10-18T05:14:19.150Z,29.63
2022-10-18T05:16:46.365Z,48.35
2022-10-18T05:19:13.420Z,42.70
2022-10-18T05:21:40.600Z,39.42
2022-10-18T05:24:07.779Z,20.38
2022-10-18T05:26:34.669Z,29.20
2022-10-18T05:29:01.977Z,19.05
2022-10-18T05:31:29.215Z,14.98
2022-10-18T05:33:56.298Z,16.98
2022-10-18T05:36:23.369Z,13.85
2022-10-18T05:38:50.331Z,13.48
2022-10-18T05:41:17.212Z,44.95
2022-10-18T05:43:44.209Z,52.60
2022-10-18T05:46:15.736Z,18.80
2022-10-18T05:48:44.799Z,27.15
2022-10-18T05:51:12.019Z,25.90
2022-10-18T05:53:39.243Z,17.83
2022-10-18T05:56:07.412Z,35.78
2022-10-18T05:58:34.516Z,39.10
2022-10-18T06:01:03.296Z,31.50
2022-10-18T06:03:33.052Z,43.65
2022-10-18T06:06:02.093Z,43.53
2022-10-18T06:08:29.294Z,32.00
2022-10-18T06:10:56.346Z,40.53
2022-10-18T06:13:23.824Z,27.33
2022-10-18T06:15:51.154Z,39.75
2022-10-18T06:18:18.044Z,31.85
2022-10-18T06:20:44.933Z,24.55
2022-10-18T06:23:11.943Z,26.08
2022-10-18T06:25:38.890Z,40.58
2022-10-18T06:28:07.950Z,36.88
2022-10-18T06:33:04.330Z,22.65
2022-10-18T06:35:31.446Z,36.95
2022-10-18T06:37:58.523Z,23.33
2022-10-18T06:40:25.471Z,41.08
2022-10-18T06:43:00.126Z,50.05
2022-10-18T06:45:33.733Z,42.10
2022-10-18T06:48:00.694Z,39.03
2022-10-18T06:50:27.782Z,36.17
2022-10-18T06:52:54.798Z,31.02
2022-10-18T06:55:21.732Z,27.08
2022-10-18T06:57:48.845Z,35.15
2022-10-18T07:00:16.046Z,36.50
2022-10-18T07:02:43.040Z,29.65
2022-10-18T07:05:11.390Z,32.78
2022-10-18T07:07:38.760Z,21.88
2022-10-18T07:10:07.131Z,22.67
2022-10-18T07:12:34.317Z,25.33
2022-10-18T07:15:03.484Z,27.23
2022-10-18T07:17:34.106Z,33.28
2022-10-18T07:20:04.527Z,21.17
2022-10-18T07:22:31.490Z,22.88
2022-10-18T07:24:58.553Z,17.85
2022-10-18T07:27:25.514Z,26.20
2022-10-18T07:29:52.491Z,16.80
2022-10-18T07:32:19.467Z,27.13
2022-10-18T07:34:46.390Z,24.85
2022-10-18T07:37:13.413Z,19.08
2022-10-18T07:39:40.281Z,24.45
2022-10-18T07:42:07.170Z,19.60
2022-10-18T07:44:34.108Z,23.90
2022-10-18T07:47:01.048Z,26.33
2022-10-18T07:49:28.126Z,15.88
2022-10-18T07:51:55.054Z,19.08
2022-10-18T07:54:22.669Z,23.48
2022-10-18T07:56:49.584Z,19.45
2022-10-18T07:59:16.525Z,22.48
2022-10-18T08:01:43.693Z,26.00
2022-10-18T08:04:15.491Z,20.05
2022-10-18T08:06:43.804Z,13.25
2022-10-18T08:09:10.672Z,26.85
2022-10-18T08:11:37.798Z,24.23
2022-10-18T08:14:04.873Z,27.67
2022-10-18T08:18:59.754Z,26.05
2022-10-18T08:21:27.018Z,25.85
2022-10-18T08:23:54.076Z,30.60
2022-10-18T08:26:23.228Z,19.83
2022-10-18T08:28:58.345Z,24.58
2022-10-18T08:31:31.221Z,19.90
2022-10-18T08:33:58.358Z,51.55
2022-10-18T08:36:25.460Z,41.00
2022-10-18T08:38:52.707Z,27.60
2022-10-18T08:41:46.419Z,22.15
2022-10-18T08:44:25.256Z,27.13
2022-10-18T08:47:06.048Z,24.55
2022-10-18T08:49:48.330Z,28.58
2022-10-18T08:52:37.443Z,25.70
2022-10-18T08:55:23.115Z,34.38
2022-10-18T08:57:51.362Z,28.05
2022-10-18T09:00:23.434Z,28.55
2022-10-18T09:03:13.740Z,29.30
2022-10-18T09:05:50.354Z,24.65
2022-10-18T09:08:41.203Z,18.00
2022-10-18T09:11:35.124Z,23.13
2022-10-18T09:15:04.714Z,23.15
2022-10-18T09:17:57.560Z,40.85
2022-10-18T09:20:28.759Z,22.70
2022-10-18T09:25:54.106Z,22.38
2022-10-18T09:29:03.426Z,22.95
2022-10-18T09:31:46.689Z,25.08
2022-10-18T09:34:51.075Z,18.75
2022-10-18T09:37:20.798Z,23.77
2022-10-18T09:39:50.347Z,18.15
2022-10-18T09:42:34.690Z,16.13
2022-10-18T09:45:32.068Z,20.60
2022-10-18T09:48:19.278Z,26.52
2022-10-18T09:50:55.211Z,21.63
2022-10-18T09:53:57.522Z,20.23
2022-10-18T09:56:30.020Z,16.25
2022-10-18T09:58:57.291Z,23.38
2022-10-18T10:01:26.770Z,19.20
2022-10-18T10:03:53.988Z,20.42
2022-10-18T10:06:32.331Z,22.30
2022-10-18T10:09:08.333Z,26.10
2022-10-18T10:11:53.738Z,21.80
2022-10-18T10:14:26.788Z,12.77
2022-10-18T10:17:07.222Z,32.08
2022-10-18T10:20:25.128Z,18.40
2022-10-18T10:22:52.913Z,12.85
2022-10-18T10:25:32.991Z,17.23
2022-10-18T10:28:05.345Z,14.48
2022-10-18T10:30:35.852Z,19.17
2022-10-18T10:33:03.602Z,19.55
2022-10-18T10:35:56.341Z,12.30
2022-10-18T10:38:25.778Z,12.15
2022-10-18T10:40:53.899Z,11.35
2022-10-18T10:43:39.753Z,17.95
2022-10-18T10:46:11.972Z,13.13
2022-10-18T10:49:14.175Z,12.82
2022-10-18T10:51:43.941Z,11.80
2022-10-18T10:54:16.981Z,14.52
2022-10-18T10:57:08.681Z,15.60
2022-10-18T11:00:04.989Z,15.63
2022-10-18T11:02:34.831Z,12.45
2022-10-18T11:05:23.292Z,25.08
2022-10-18T11:07:52.903Z,13.93
2022-10-18T11:10:24.080Z,11.35
2022-10-18T11:13:28.500Z,11.52
2022-10-18T11:16:06.111Z,14.05
2022-10-18T11:18:35.611Z,9.23
2022-10-18T11:21:11.566Z,11.32
2022-10-18T11:23:40.744Z,7.65
2022-10-18T11:26:52.089Z,21.85
2022-10-18T11:29:46.365Z,14.00
2022-10-18T11:32:54.764Z,10.10
2022-10-18T11:35:38.948Z,11.18
2022-10-18T11:38:49.973Z,17.98
2022-10-18T11:44:03.692Z,9.27
2022-10-18T11:46:49.440Z,10.57
2022-10-18T11:49:35.217Z,6.90
2022-10-18T11:52:48.242Z,20.20
2022-10-18T11:55:47.642Z,18.58
2022-10-18T11:58:57.247Z,8.43
2022-10-18T12:01:47.601Z,14.32
2022-10-18T12:04:18.922Z,9.52
2022-10-18T12:06:49.457Z,11.10
2022-10-18T12:12:21.541Z,4.18
2022-10-18T12:14:58.204Z,9.77
2022-10-18T12:17:51.054Z,17.48
2022-10-18T12:20:40.495Z,13.23
2022-10-18T12:23:15.502Z,7.35
2022-10-18T12:25:48.196Z,4.47
2022-10-18T12:28:52.664Z,10.15
2022-10-18T12:31:34.600Z,4.38
2022-10-18T12:34:10.912Z,8.93
2022-10-18T12:37:18.325Z,4.70
2022-10-18T12:40:09.413Z,8.27
2022-10-18T12:42:43.189Z,6.32
2022-10-18T12:45:50.986Z,3.97
2022-10-18T12:48:33.982Z,2.67
2022-10-18T12:51:17.613Z,7.38
2022-10-18T12:53:47.415Z,7.38
2022-10-18T12:56:51.009Z,13.73
2022-10-18T12:59:41.612Z,2.00
2022-10-18T13:04:38.458Z,7.47
2022-10-18T13:07:41.093Z,8.52
2022-10-18T13:10:35.287Z,6.90
2022-10-18T13:13:39.095Z,5.43
2022-10-18T13:16:22.740Z,2.70
2022-10-18T13:19:38.937Z,3.22
2022-10-18T13:22:42.861Z,3.47
2022-10-18T13:26:00.611Z,8.52
2022-10-18T13:28:56.636Z,7.10
2022-10-18T13:31:40.407Z,6.53
2022-10-18T13:34:40.898Z,8.35
2022-10-18T13:40:22.765Z,3.35
2022-10-18T13:42:49.898Z,28.73
2022-10-18T13:45:55.800Z,6.22
2022-10-18T13:48:52.810Z,15.95
2022-10-18T13:52:01.547Z,14.05
2022-10-18T13:55:01.594Z,5.15
2022-10-18T13:58:14.096Z,6.18
2022-10-18T14:01:19.599Z,13.10
2022-10-18T14:04:17.247Z,12.40
2022-10-18T14:06:47.522Z,20.08
2022-10-18T14:12:52.381Z,9.50
2022-10-18T14:15:34.927Z,15.38
2022-10-18T14:18:19.055Z,6.40
2022-10-18T14:21:14.170Z,9.32
2022-10-18T14:23:44.918Z,12.15
2022-10-18T14:26:21.149Z,13.27
2022-10-18T14:29:22.763Z,13.80
2022-10-18T14:31:54.471Z,4.95
2022-10-18T14:34:22.193Z,6.75
2022-10-18T14:36:50.040Z,8.35
2022-10-18T14:39:24.453Z,4.63
2022-10-18T14:41:54.205Z,16.35
2022-10-18T14:44:27.296Z,10.15
2022-10-18T14:47:15.051Z,13.20
2022-10-18T14:49:46.274Z,9.38
2022-10-18T14:52:21.959Z,9.40
2022-10-18T14:54:51.142Z,15.60
2022-10-18T14:57:37.800Z,7.03
2022-10-18T15:00:09.019Z,7.03
2022-10-18T15:02:38.772Z,8.35
2022-10-18T15:07:52.691Z,11.32
2022-10-18T15:10:24.720Z,5.65
2022-10-18T15:13:09.200Z,11.45
2022-10-18T15:15:38.096Z,5.95
2022-10-18T15:18:06.788Z,16.85
2022-10-18T15:20:43.030Z,6.18
2022-10-18T15:23:25.973Z,10.77
2022-10-18T15:26:02.151Z,7.53
2022-10-18T15:28:37.882Z,4.07
2022-10-18T15:31:05.534Z,16.60
2022-10-18T15:33:36.219Z,13.27
2022-10-18T15:36:26.099Z,14.43
2022-10-18T15:38:53.173Z,18.83
2022-10-18T15:41:52.731Z,17.77
2022-10-18T15:44:34.762Z,18.88
2022-10-18T15:47:21.327Z,9.05
2022-10-18T15:49:56.761Z,25.75
2022-10-18T15:52:39.328Z,9.45
2022-10-18T15:55:52.480Z,12.50
2022-10-18T15:58:26.120Z,6.03
2022-10-18T16:00:57.776Z,17.20
2022-10-18T16:03:25.461Z,21.25
2022-10-18T16:06:07.395Z,10.60
2022-10-18T16:08:41.119Z,14.65
2022-10-18T16:11:16.600Z,4.88
2022-10-18T16:13:44.242Z,6.97
2022-10-18T16:16:17.257Z,9.65
2022-10-18T16:18:44.322Z,16.13
2022-10-18T16:21:38.200Z,12.43
2022-10-18T16:24:05.938Z,9.27
2022-10-18T16:26:33.521Z,56.08
2022-10-18T16:29:01.002Z,16.17
2022-10-18T16:31:30.877Z,15.95
2022-10-18T16:33:58.779Z,15.70
2022-10-18T16:36:29.270Z,16.77
2022-10-18T16:38:58.018Z,10.65
2022-10-18T16:41:24.972Z,18.83
2022-10-18T16:43:52.354Z,17.02
2022-10-18T16:46:21.948Z,12.60
2022-10-18T16:48:51.027Z,27.45
2022-10-18T16:51:18.139Z,17.33
2022-10-18T16:53:45.403Z,11.68
2022-10-18T16:56:18.175Z,12.80
2022-10-18T16:58:46.180Z,9.07
2022-10-18T17:01:19.040Z,14.00
2022-10-18T17:03:46.823Z,9.25
2022-10-18T17:06:22.977Z,11.93
2022-10-18T17:08:51.172Z,11.93
2022-10-18T17:11:19.272Z,11.82
2022-10-18T17:13:46.253Z,14.68
2022-10-18T17:16:26.767Z,16.35
2022-10-18T17:18:53.890Z,12.20
2022-10-18T17:21:21.359Z,10.20
2022-10-18T17:23:48.910Z,5.10
2022-10-18T17:26:28.936Z,10.18
2022-10-18T17:29:00.259Z,9.50
2022-10-18T17:31:28.573Z,12.13
2022-10-18T17:33:55.689Z,11.55
2022-10-18T17:36:22.710Z,12.30
2022-10-18T17:38:53.630Z,19.98
2022-10-18T17:41:20.904Z,26.63
2022-10-18T17:43:48.547Z,10.05
2022-10-18T17:46:17.980Z,13.80
2022-10-18T17:48:45.573Z,9.43
2022-10-18T17:51:15.482Z,9.25
2022-10-18T17:53:42.809Z,12.88
2022-10-18T17:56:11.267Z,15.10
2022-10-18T17:58:38.525Z,11.88
2022-10-18T18:01:17.277Z,11.85
2022-10-18T18:03:44.530Z,12.80
2022-10-18T18:06:23.304Z,8.75
2022-10-18T18:08:50.767Z,12.00
2022-10-18T18:11:18.191Z,16.90
2022-10-18T18:13:45.356Z,8.77
2022-10-18T18:16:30.580Z,9.80
2022-10-18T18:18:58.976Z,20.83
2022-10-18T18:21:26.901Z,12.88
2022-10-18T18:23:54.742Z,13.60
2022-10-18T18:26:22.678Z,7.85
2022-10-18T18:28:49.815Z,11.85
2022-10-18T18:31:25.059Z,8.77
2022-10-18T18:33:53.530Z,11.65
2022-10-18T18:36:20.805Z,12.98
2022-10-18T18:38:48.463Z,7.55
2022-10-18T18:41:20.973Z,10.52
2022-10-18T18:43:54.247Z,21.48
2022-10-18T18:46:22.581Z,30.52
2022-10-18T18:48:49.834Z,10.73
2022-10-18T18:51:19.297Z,14.20
2022-10-18T18:53:47.398Z,11.93
2022-10-18T18:56:17.868Z,9.48
2022-10-18T18:58:46.132Z,11.82
2022-10-18T19:01:33.066Z,8.20
2022-10-18T19:04:00.525Z,12.55
2022-10-18T19:06:30.178Z,10.80
2022-10-18T19:09:01.600Z,17.08
2022-10-18T19:11:32.497Z,14.13
2022-10-18T19:14:00.943Z,16.42
2022-10-18T19:16:39.595Z,8.40
2022-10-18T19:19:17.715Z,19.63
2022-10-18T19:21:46.990Z,7.95
2022-10-18T19:24:14.126Z,13.52
2022-10-18T19:27:05.942Z,9.90
2022-10-18T19:29:35.091Z,12.85
2022-10-18T19:32:08.686Z,13.55
2022-10-18T19:34:35.975Z,10.40
2022-10-18T19:37:03.487Z,14.50
2022-10-18T19:39:32.515Z,10.60
2022-10-18T19:42:03.460Z,13.43
2022-10-18T19:44:32.179Z,14.20
2022-10-18T19:46:59.607Z,16.27
2022-10-18T19:49:28.726Z,11.73
2022-10-18T19:51:56.631Z,11.68
2022-10-18T19:54:24.186Z,9.45
2022-10-18T19:56:51.238Z,11.55
2022-10-18T19:59:18.481Z,14.30
2022-10-18T20:01:45.977Z,9.13
2022-10-18T20:04:13.545Z,13.00
2022-10-18T20:06:41.040Z,14.90
2022-10-18T20:09:11.532Z,11.73
2022-10-18T20:11:40.934Z,9.35
2022-10-18T20:14:09.813Z,14.15
2022-10-18T20:16:37.091Z,19.23
2022-10-18T20:19:07.140Z,18.98
2022-10-18T20:21:36.089Z,10.13
2022-10-18T20:24:05.054Z,10.25
2022-10-18T20:26:32.233Z,19.88
2022-10-18T20:29:00.053Z,10.80
2022-10-18T20:31:32.086Z,10.27
2022-10-18T20:34:01.737Z,13.60
2022-10-18T20:36:30.793Z,12.05
2022-10-18T20:38:57.843Z,7.95
2022-10-18T20:41:30.526Z,8.15
2022-10-18T20:44:02.711Z,14.05
2022-10-18T20:46:34.979Z,14.80
2022-10-18T20:49:02.642Z,11.65
2022-10-18T20:51:29.575Z,11.50
2022-10-18T20:53:56.730Z,11.88
2022-10-18T20:56:27.331Z,17.83
2022-10-18T20:58:56.249Z,18.30
2022-10-18T21:01:26.738Z,17.02
2022-10-18T21:03:55.937Z,13.65
2022-10-18T21:06:33.892Z,15.73
2022-10-18T21:09:04.681Z,14.38
2022-10-18T21:11:34.982Z,7.97
2022-10-18T21:14:03.053Z,6.47
2022-10-18T21:16:34.513Z,6.75
2022-10-18T21:19:10.735Z,5.95
2022-10-18T21:21:37.548Z,6.75
2022-10-18T21:24:07.152Z,9.00
2022-10-18T21:26:35.821Z,8.73
2022-10-18T21:29:03.918Z,12.68
2022-10-18T21:31:33.028Z,9.32
2022-10-18T21:34:02.282Z,8.68
2022-10-18T21:36:36.280Z,5.60
2022-10-18T21:39:05.554Z,6.18
2022-10-18T21:41:32.599Z,6.80
2022-10-18T21:43:59.824Z,13.10
2022-10-18T21:46:27.153Z,8.25
2022-10-18T21:48:55.993Z,8.27
2022-10-18T21:51:25.327Z,6.28
2022-10-18T21:53:55.278Z,11.95
2022-10-18T21:56:33.945Z,12.50
2022-10-18T21:59:02.001Z,11.60
2022-10-18T22:01:37.063Z,7.93
2022-10-18T22:04:06.866Z,10.38
2022-10-18T22:09:10.140Z,6.45
2022-10-18T22:11:49.174Z,8.07
2022-10-18T22:14:16.191Z,6.68
2022-10-18T22:16:43.271Z,7.57
2022-10-18T22:19:12.754Z,10.32
2022-10-18T22:21:40.037Z,9.15
2022-10-18T22:24:08.940Z,9.02
2022-10-18T22:26:38.248Z,7.38
2022-10-18T22:29:08.921Z,7.30
2022-10-18T22:31:39.446Z,8.63
2022-10-18T22:34:10.471Z,8.38
2022-10-18T22:36:37.774Z,6.50
2022-10-18T22:39:05.622Z,8.82
2022-10-18T22:41:33.384Z,11.48
2022-10-18T22:44:03.433Z,10.73
2022-10-18T22:46:31.718Z,8.13
2022-10-18T22:48:58.784Z,11.45
2022-10-18T22:51:25.801Z,7.50
2022-10-18T22:53:53.143Z,7.68
2022-10-18T22:56:22.900Z,6.50
2022-10-18T22:58:49.993Z,6.53
2022-10-18T23:01:19.949Z,8.25
2022-10-18T23:03:46.939Z,6.97
2022-10-18T23:06:35.879Z,5.45
2022-10-18T23:09:08.484Z,7.15
2022-10-18T23:11:36.776Z,6.45
2022-10-18T23:14:06.065Z,6.03
2022-10-18T23:16:33.495Z,10.55
2022-10-18T23:19:00.572Z,9.13
2022-10-18T23:21:28.929Z,7.18
2022-10-18T23:23:57.053Z,7.00
2022-10-18T23:26:26.296Z,8.57
2022-10-18T23:28:53.937Z,6.15
2022-10-18T23:31:24.006Z,5.38
2022-10-18T23:33:52.888Z,9.38
2022-10-18T23:36:20.239Z,13.40
2022-10-18T23:38:47.270Z,6.75
2022-10-18T23:41:15.548Z,6.38
2022-10-18T23:43:43.647Z,5.63
2022-10-18T23:46:11.860Z,11.43
2022-10-18T23:48:38.941Z,5.25
2022-10-18T23:51:06.660Z,8.93
2022-10-18T23:53:34.096Z,5.03
2022-10-18T23:56:09.593Z,8.77
2022-10-18T23:58:36.939Z,7.18
